sensor_id;sensor_type;location;lat;lon;timestamp;P1;durP1;ratioP1;P2;durP2;ratioP2
6551;SDS011;3309;48.708;9.290;2024-01-11T00:02:21;1.00;;;1.00;;
6551;SDS011;3309;48.708;9.290;2024-01-11T00:04:46;0.90;;;0.90;;
6551;SDS011;3309;48.708;9.290;2024-01-11T00:07:13;1.00;;;1.00;;
6551;SDS011;3309;48.708;9.290;2024-01-11T00:09:42;1.00;;;1.00;;
6551;SDS011;3309;48.708;9.290;2024-01-11T00:12:08;1.03;;;1.03;;
6551;SDS011;3309;48.708;9.290;2024-01-11T00:14:35;1.00;;;1.00;;
6551;SDS011;3309;48.708;9.290;2024-01-11T00:17:02;1.00;;;1.00;;
6551;SDS011;3309;48.708;9.290;2024-01-11T00:19:27;1.00;;;1.00;;
6551;SDS011;3309;48.708;9.290;2024-01-11T00:21:54;1.00;;;1.00;;
6551;SDS011;3309;48.708;9.290;2024-01-11T00:24:19;1.00;;;1.00;;
6551;SDS011;3309;48.708;9.290;2024-01-11T00:26:45;1.00;;;1.00;;
6551;SDS011;3309;48.708;9.290;2024-01-11T00:29:10;1.00;;;1.00;;
6551;SDS011;3309;48.708;9.290;2024-01-11T00:31:36;1.00;;;1.00;;
6551;SDS011;3309;48.708;9.290;2024-01-11T00:34:03;1.00;;;1.00;;
6551;SDS011;3309;48.708;9.290;2024-01-11T00:36:29;0.93;;;0.93;;
6551;SDS011;3309;48.708;9.290;2024-01-11T00:38:54;0.90;;;0.90;;
6551;SDS011;3309;48.708;9.290;2024-01-11T00:41:20;1.00;;;1.00;;
6551;SDS011;3309;48.708;9.290;2024-01-11T00:43:46;1.00;;;1.00;;
6551;SDS011;3309;48.708;9.290;2024-01-11T00:46:11;1.00;;;1.00;;
6551;SDS011;3309;48.708;9.290;2024-01-11T00:48:37;1.00;;;1.00;;
6551;SDS011;3309;48.708;9.290;2024-01-11T00:51:06;0.90;;;0.90;;
6551;SDS011;3309;48.708;9.290;2024-01-11T00:53:32;1.00;;;1.00;;
6551;SDS011;3309;48.708;9.290;2024-01-11T00:55:58;1.07;;;1.07;;
6551;SDS011;3309;48.708;9.290;2024-01-11T00:58:24;0.90;;;0.90;;
6551;SDS011;3309;48.708;9.290;2024-01-11T01:00:50;1.00;;;1.00;;
6551;SDS011;3309;48.708;9.290;2024-01-11T01:03:17;1.00;;;1.00;;
6551;SDS011;3309;48.708;9.290;2024-01-11T01:05:46;0.90;;;0.90;;
6551;SDS011;3309;48.708;9.290;2024-01-11T01:08:12;0.90;;;0.90;;
6551;SDS011;3309;48.708;9.290;2024-01-11T01:10:38;0.90;;;0.90;;
6551;SDS011;3309;48.708;9.290;2024-01-11T01:13:03;1.00;;;1.00;;
6551;SDS011;3309;48.708;9.290;2024-01-11T01:15:29;0.90;;;0.90;;
6551;SDS011;3309;48.708;9.290;2024-01-11T01:17:55;1.00;;;1.00;;
6551;SDS011;3309;48.708;9.290;2024-01-11T01:20:20;0.90;;;0.90;;
6551;SDS011;3309;48.708;9.290;2024-01-11T01:22:46;1.00;;;1.00;;
6551;SDS011;3309;48.708;9.290;2024-01-11T01:25:12;1.00;;;1.00;;
6551;SDS011;3309;48.708;9.290;2024-01-11T01:27:38;1.00;;;1.00;;
6551;SDS011;3309;48.708;9.290;2024-01-11T01:30:04;1.00;;;1.00;;
6551;SDS011;3309;48.708;9.290;2024-01-11T01:32:30;1.00;;;1.00;;
6551;SDS011;3309;48.708;9.290;2024-01-11T01:34:55;1.00;;;1.00;;
6551;SDS011;3309;48.708;9.290;2024-01-11T01:37:21;0.90;;;0.90;;
6551;SDS011;3309;48.708;9.290;2024-01-11T01:39:47;0.90;;;0.90;;
6551;SDS011;3309;48.708;9.290;2024-01-11T01:42:12;1.00;;;1.00;;
6551;SDS011;3309;48.708;9.290;2024-01-11T01:44:38;1.00;;;1.00;;
6551;SDS011;3309;48.708;9.290;2024-01-11T01:47:05;1.00;;;1.00;;
6551;SDS011;3309;48.708;9.290;2024-01-11T01:49:32;1.00;;;1.00;;
6551;SDS011;3309;48.708;9.290;2024-01-11T01:51:58;0.90;;;0.90;;
6551;SDS011;3309;48.708;9.290;2024-01-11T01:54:24;0.90;;;0.90;;
6551;SDS011;3309;48.708;9.290;2024-01-11T01:56:50;1.00;;;1.00;;
6551;SDS011;3309;48.708;9.290;2024-01-11T01:59:18;1.10;;;1.10;;
6551;SDS011;3309;48.708;9.290;2024-01-11T02:01:45;0.90;;;0.90;;
6551;SDS011;3309;48.708;9.290;2024-01-11T02:04:11;0.90;;;0.90;;
6551;SDS011;3309;48.708;9.290;2024-01-11T02:06:37;1.00;;;1.00;;
6551;SDS011;3309;48.708;9.290;2024-01-11T02:09:03;1.03;;;1.03;;
6551;SDS011;3309;48.708;9.290;2024-01-11T02:11:29;1.00;;;1.00;;
6551;SDS011;3309;48.708;9.290;2024-01-11T02:13:55;0.90;;;0.90;;
6551;SDS011;3309;48.708;9.290;2024-01-11T02:16:22;0.90;;;0.90;;
6551;SDS011;3309;48.708;9.290;2024-01-11T02:18:48;0.90;;;0.90;;
6551;SDS011;3309;48.708;9.290;2024-01-11T02:21:14;0.90;;;0.90;;
6551;SDS011;3309;48.708;9.290;2024-01-11T02:23:53;0.90;;;0.90;;
6551;SDS011;3309;48.708;9.290;2024-01-11T02:26:29;1.00;;;1.00;;
6551;SDS011;3309;48.708;9.290;2024-01-11T02:28:55;0.90;;;0.90;;
6551;SDS011;3309;48.708;9.290;2024-01-11T02:31:20;1.00;;;1.00;;
6551;SDS011;3309;48.708;9.290;2024-01-11T02:33:46;1.00;;;1.00;;
6551;SDS011;3309;48.708;9.290;2024-01-11T02:36:12;0.90;;;0.90;;
6551;SDS011;3309;48.708;9.290;2024-01-11T02:38:38;0.90;;;0.90;;
6551;SDS011;3309;48.708;9.290;2024-01-11T02:41:07;0.90;;;0.90;;
6551;SDS011;3309;48.708;9.290;2024-01-11T02:43:33;0.80;;;0.80;;
6551;SDS011;3309;48.708;9.290;2024-01-11T02:46:02;0.90;;;0.90;;
6551;SDS011;3309;48.708;9.290;2024-01-11T02:48:28;0.90;;;0.90;;
6551;SDS011;3309;48.708;9.290;2024-01-11T02:50:55;1.00;;;1.00;;
6551;SDS011;3309;48.708;9.290;2024-01-11T02:53:23;0.90;;;0.90;;
6551;SDS011;3309;48.708;9.290;2024-01-11T02:55:49;0.90;;;0.90;;
6551;SDS011;3309;48.708;9.290;2024-01-11T02:58:15;1.00;;;1.00;;
6551;SDS011;3309;48.708;9.290;2024-01-11T03:00:41;0.90;;;0.90;;
6551;SDS011;3309;48.708;9.290;2024-01-11T03:03:07;0.93;;;0.93;;
6551;SDS011;3309;48.708;9.290;2024-01-11T03:05:32;1.00;;;1.00;;
6551;SDS011;3309;48.708;9.290;2024-01-11T03:07:58;1.00;;;1.00;;
6551;SDS011;3309;48.708;9.290;2024-01-11T03:10:23;1.00;;;1.00;;
6551;SDS011;3309;48.708;9.290;2024-01-11T03:12:50;0.90;;;0.90;;
6551;SDS011;3309;48.708;9.290;2024-01-11T03:15:15;1.00;;;1.00;;
6551;SDS011;3309;48.708;9.290;2024-01-11T03:17:41;0.90;;;0.90;;
6551;SDS011;3309;48.708;9.290;2024-01-11T03:20:07;0.90;;;0.90;;
6551;SDS011;3309;48.708;9.290;2024-01-11T03:22:33;0.90;;;0.90;;
6551;SDS011;3309;48.708;9.290;2024-01-11T03:24:58;1.00;;;1.00;;
6551;SDS011;3309;48.708;9.290;2024-01-11T03:27:24;1.00;;;1.00;;
6551;SDS011;3309;48.708;9.290;2024-01-11T03:29:49;0.90;;;0.90;;
6551;SDS011;3309;48.708;9.290;2024-01-11T03:32:15;1.00;;;1.00;;
6551;SDS011;3309;48.708;9.290;2024-01-11T03:34:41;0.90;;;0.90;;
6551;SDS011;3309;48.708;9.290;2024-01-11T03:37:06;0.90;;;0.90;;
6551;SDS011;3309;48.708;9.290;2024-01-11T03:39:32;1.00;;;1.00;;
6551;SDS011;3309;48.708;9.290;2024-01-11T03:41:59;1.00;;;1.00;;
6551;SDS011;3309;48.708;9.290;2024-01-11T03:44:24;0.90;;;0.90;;
6551;SDS011;3309;48.708;9.290;2024-01-11T03:46:50;1.07;;;1.07;;
6551;SDS011;3309;48.708;9.290;2024-01-11T03:49:16;1.00;;;1.00;;
6551;SDS011;3309;48.708;9.290;2024-01-11T03:51:42;1.00;;;1.00;;
6551;SDS011;3309;48.708;9.290;2024-01-11T03:54:07;1.00;;;1.00;;
6551;SDS011;3309;48.708;9.290;2024-01-11T03:56:33;1.00;;;1.00;;
6551;SDS011;3309;48.708;9.290;2024-01-11T03:59:02;0.90;;;0.90;;
6551;SDS011;3309;48.708;9.290;2024-01-11T04:01:27;0.90;;;0.90;;
6551;SDS011;3309;48.708;9.290;2024-01-11T04:03:53;0.90;;;0.90;;
6551;SDS011;3309;48.708;9.290;2024-01-11T04:06:19;1.00;;;1.00;;
6551;SDS011;3309;48.708;9.290;2024-01-11T04:08:46;0.90;;;0.90;;
6551;SDS011;3309;48.708;9.290;2024-01-11T04:11:12;0.90;;;0.90;;
6551;SDS011;3309;48.708;9.290;2024-01-11T04:13:38;1.00;;;1.00;;
6551;SDS011;3309;48.708;9.290;2024-01-11T04:16:05;0.87;;;0.87;;
6551;SDS011;3309;48.708;9.290;2024-01-11T04:18:31;0.90;;;0.90;;
6551;SDS011;3309;48.708;9.290;2024-01-11T04:20:57;1.00;;;1.00;;
6551;SDS011;3309;48.708;9.290;2024-01-11T04:23:23;1.00;;;1.00;;
6551;SDS011;3309;48.708;9.290;2024-01-11T04:25:48;1.00;;;1.00;;
6551;SDS011;3309;48.708;9.290;2024-01-11T04:28:15;0.90;;;0.90;;
6551;SDS011;3309;48.708;9.290;2024-01-11T04:30:41;1.00;;;1.00;;
6551;SDS011;3309;48.708;9.290;2024-01-11T04:33:07;1.00;;;1.00;;
6551;SDS011;3309;48.708;9.290;2024-01-11T04:35:32;1.00;;;1.00;;
6551;SDS011;3309;48.708;9.290;2024-01-11T04:37:58;0.90;;;0.90;;
6551;SDS011;3309;48.708;9.290;2024-01-11T04:40:24;1.10;;;1.10;;
6551;SDS011;3309;48.708;9.290;2024-01-11T04:42:49;1.03;;;1.03;;
6551;SDS011;3309;48.708;9.290;2024-01-11T04:45:15;0.93;;;0.93;;
6551;SDS011;3309;48.708;9.290;2024-01-11T04:47:40;1.00;;;1.00;;
6551;SDS011;3309;48.708;9.290;2024-01-11T04:50:06;0.90;;;0.90;;
6551;SDS011;3309;48.708;9.290;2024-01-11T04:52:32;1.00;;;1.00;;
6551;SDS011;3309;48.708;9.290;2024-01-11T04:54:58;1.00;;;1.00;;
6551;SDS011;3309;48.708;9.290;2024-01-11T04:57:23;1.00;;;1.00;;
6551;SDS011;3309;48.708;9.290;2024-01-11T04:59:49;0.97;;;0.97;;
6551;SDS011;3309;48.708;9.290;2024-01-11T05:02:14;1.00;;;1.00;;
6551;SDS011;3309;48.708;9.290;2024-01-11T05:04:40;0.90;;;0.90;;
6551;SDS011;3309;48.708;9.290;2024-01-11T05:07:05;1.00;;;1.00;;
6551;SDS011;3309;48.708;9.290;2024-01-11T05:09:31;0.90;;;0.90;;
6551;SDS011;3309;48.708;9.290;2024-01-11T05:11:56;1.00;;;1.00;;
6551;SDS011;3309;48.708;9.290;2024-01-11T05:14:22;1.00;;;1.00;;
6551;SDS011;3309;48.708;9.290;2024-01-11T05:16:48;0.90;;;0.90;;
6551;SDS011;3309;48.708;9.290;2024-01-11T05:19:13;1.00;;;1.00;;
6551;SDS011;3309;48.708;9.290;2024-01-11T05:21:39;0.90;;;0.90;;
6551;SDS011;3309;48.708;9.290;2024-01-11T05:24:04;0.90;;;0.90;;
6551;SDS011;3309;48.708;9.290;2024-01-11T05:26:30;0.90;;;0.90;;
6551;SDS011;3309;48.708;9.290;2024-01-11T05:28:56;0.90;;;0.90;;
6551;SDS011;3309;48.708;9.290;2024-01-11T05:31:22;1.00;;;1.00;;
6551;SDS011;3309;48.708;9.290;2024-01-11T05:33:47;0.87;;;0.87;;
6551;SDS011;3309;48.708;9.290;2024-01-11T05:36:13;1.00;;;1.00;;
6551;SDS011;3309;48.708;9.290;2024-01-11T05:38:39;0.80;;;0.80;;
6551;SDS011;3309;48.708;9.290;2024-01-11T05:41:05;0.90;;;0.90;;
6551;SDS011;3309;48.708;9.290;2024-01-11T05:43:30;0.80;;;0.80;;
6551;SDS011;3309;48.708;9.290;2024-01-11T05:45:56;0.90;;;0.90;;
6551;SDS011;3309;48.708;9.290;2024-01-11T05:48:22;1.10;;;1.10;;
6551;SDS011;3309;48.708;9.290;2024-01-11T05:50:47;1.00;;;1.00;;
6551;SDS011;3309;48.708;9.290;2024-01-11T05:53:13;1.00;;;1.00;;
6551;SDS011;3309;48.708;9.290;2024-01-11T05:55:39;0.90;;;0.90;;
6551;SDS011;3309;48.708;9.290;2024-01-11T05:58:05;1.00;;;1.00;;
6551;SDS011;3309;48.708;9.290;2024-01-11T06:00:31;1.00;;;1.00;;
6551;SDS011;3309;48.708;9.290;2024-01-11T06:02:56;0.90;;;0.90;;
6551;SDS011;3309;48.708;9.290;2024-01-11T06:05:22;0.90;;;0.90;;
6551;SDS011;3309;48.708;9.290;2024-01-11T06:07:47;1.00;;;1.00;;
6551;SDS011;3309;48.708;9.290;2024-01-11T06:10:14;0.93;;;0.93;;
6551;SDS011;3309;48.708;9.290;2024-01-11T06:12:40;1.00;;;1.00;;
6551;SDS011;3309;48.708;9.290;2024-01-11T06:15:06;1.00;;;1.00;;
6551;SDS011;3309;48.708;9.290;2024-01-11T06:17:32;1.00;;;1.00;;
6551;SDS011;3309;48.708;9.290;2024-01-11T06:19:58;0.90;;;0.90;;
6551;SDS011;3309;48.708;9.290;2024-01-11T06:22:23;1.00;;;1.00;;
6551;SDS011;3309;48.708;9.290;2024-01-11T06:24:49;1.00;;;1.00;;
6551;SDS011;3309;48.708;9.290;2024-01-11T06:27:14;0.90;;;0.90;;
6551;SDS011;3309;48.708;9.290;2024-01-11T06:29:40;0.90;;;0.90;;
6551;SDS011;3309;48.708;9.290;2024-01-11T06:32:06;1.00;;;1.00;;
6551;SDS011;3309;48.708;9.290;2024-01-11T06:34:34;0.90;;;0.90;;
6551;SDS011;3309;48.708;9.290;2024-01-11T06:37:00;0.90;;;0.90;;
6551;SDS011;3309;48.708;9.290;2024-01-11T06:39:27;0.97;;;0.97;;
6551;SDS011;3309;48.708;9.290;2024-01-11T06:41:53;0.90;;;0.90;;
6551;SDS011;3309;48.708;9.290;2024-01-11T06:44:19;0.90;;;0.90;;
6551;SDS011;3309;48.708;9.290;2024-01-11T06:46:44;0.93;;;0.93;;
6551;SDS011;3309;48.708;9.290;2024-01-11T06:49:10;1.00;;;1.00;;
6551;SDS011;3309;48.708;9.290;2024-01-11T06:51:36;1.00;;;1.00;;
6551;SDS011;3309;48.708;9.290;2024-01-11T06:54:02;0.90;;;0.90;;
6551;SDS011;3309;48.708;9.290;2024-01-11T06:56:27;0.90;;;0.90;;
6551;SDS011;3309;48.708;9.290;2024-01-11T06:58:54;1.00;;;1.00;;
6551;SDS011;3309;48.708;9.290;2024-01-11T07:01:20;0.93;;;0.93;;
6551;SDS011;3309;48.708;9.290;2024-01-11T07:03:46;1.00;;;1.00;;
6551;SDS011;3309;48.708;9.290;2024-01-11T07:06:11;0.93;;;0.93;;
6551;SDS011;3309;48.708;9.290;2024-01-11T07:08:37;1.03;;;1.03;;
6551;SDS011;3309;48.708;9.290;2024-01-11T07:11:03;0.80;;;0.80;;
6551;SDS011;3309;48.708;9.290;2024-01-11T07:13:29;0.97;;;0.97;;
6551;SDS011;3309;48.708;9.290;2024-01-11T07:15:56;0.90;;;0.90;;
6551;SDS011;3309;48.708;9.290;2024-01-11T07:18:23;1.00;;;1.00;;
6551;SDS011;3309;48.708;9.290;2024-01-11T07:20:49;1.00;;;1.00;;
6551;SDS011;3309;48.708;9.290;2024-01-11T07:23:15;1.00;;;1.00;;
6551;SDS011;3309;48.708;9.290;2024-01-11T07:25:41;0.90;;;0.90;;
6551;SDS011;3309;48.708;9.290;2024-01-11T07:28:07;1.00;;;1.00;;
6551;SDS011;3309;48.708;9.290;2024-01-11T07:30:32;0.80;;;0.80;;
6551;SDS011;3309;48.708;9.290;2024-01-11T07:32:58;0.90;;;0.90;;
6551;SDS011;3309;48.708;9.290;2024-01-11T07:35:23;1.00;;;1.00;;
6551;SDS011;3309;48.708;9.290;2024-01-11T07:37:49;1.10;;;1.10;;
6551;SDS011;3309;48.708;9.290;2024-01-11T07:40:15;0.90;;;0.90;;
6551;SDS011;3309;48.708;9.290;2024-01-11T07:42:42;0.93;;;0.93;;
6551;SDS011;3309;48.708;9.290;2024-01-11T07:45:08;1.00;;;1.00;;
6551;SDS011;3309;48.708;9.290;2024-01-11T07:47:35;0.93;;;0.93;;
6551;SDS011;3309;48.708;9.290;2024-01-11T07:50:05;1.10;;;1.10;;
6551;SDS011;3309;48.708;9.290;2024-01-11T07:52:40;0.90;;;0.90;;
6551;SDS011;3309;48.708;9.290;2024-01-11T07:55:06;1.00;;;1.00;;
6551;SDS011;3309;48.708;9.290;2024-01-11T07:57:35;0.90;;;0.90;;
6551;SDS011;3309;48.708;9.290;2024-01-11T08:00:02;1.00;;;1.00;;
6551;SDS011;3309;48.708;9.290;2024-01-11T08:02:31;0.83;;;0.83;;
6551;SDS011;3309;48.708;9.290;2024-01-11T08:04:58;0.90;;;0.90;;
6551;SDS011;3309;48.708;9.290;2024-01-11T08:07:24;0.90;;;0.90;;
6551;SDS011;3309;48.708;9.290;2024-01-11T08:09:51;1.00;;;1.00;;
6551;SDS011;3309;48.708;9.290;2024-01-11T08:12:16;0.93;;;0.93;;
6551;SDS011;3309;48.708;9.290;2024-01-11T08:14:42;1.00;;;1.00;;
6551;SDS011;3309;48.708;9.290;2024-01-11T08:17:08;0.80;;;0.80;;
6551;SDS011;3309;48.708;9.290;2024-01-11T08:19:34;0.97;;;0.97;;
6551;SDS011;3309;48.708;9.290;2024-01-11T08:22:00;0.90;;;0.90;;
6551;SDS011;3309;48.708;9.290;2024-01-11T08:24:26;0.80;;;0.80;;
6551;SDS011;3309;48.708;9.290;2024-01-11T08:26:51;0.80;;;0.80;;
6551;SDS011;3309;48.708;9.290;2024-01-11T08:29:17;0.90;;;0.90;;
6551;SDS011;3309;48.708;9.290;2024-01-11T08:31:44;0.80;;;0.80;;
6551;SDS011;3309;48.708;9.290;2024-01-11T08:34:10;0.80;;;0.80;;
6551;SDS011;3309;48.708;9.290;2024-01-11T08:36:36;0.80;;;0.80;;
6551;SDS011;3309;48.708;9.290;2024-01-11T08:39:03;0.70;;;0.70;;
6551;SDS011;3309;48.708;9.290;2024-01-11T08:41:30;0.70;;;0.70;;
6551;SDS011;3309;48.708;9.290;2024-01-11T08:43:56;0.80;;;0.80;;
6551;SDS011;3309;48.708;9.290;2024-01-11T08:46:25;0.80;;;0.80;;
6551;SDS011;3309;48.708;9.290;2024-01-11T08:48:51;0.80;;;0.80;;
6551;SDS011;3309;48.708;9.290;2024-01-11T08:51:17;0.70;;;0.70;;
6551;SDS011;3309;48.708;9.290;2024-01-11T08:53:43;0.80;;;0.80;;
6551;SDS011;3309;48.708;9.290;2024-01-11T08:56:09;0.70;;;0.70;;
6551;SDS011;3309;48.708;9.290;2024-01-11T08:58:34;0.77;;;0.77;;
6551;SDS011;3309;48.708;9.290;2024-01-11T09:01:01;0.70;;;0.70;;
6551;SDS011;3309;48.708;9.290;2024-01-11T09:03:27;0.60;;;0.60;;
6551;SDS011;3309;48.708;9.290;2024-01-11T09:05:53;0.70;;;0.70;;
6551;SDS011;3309;48.708;9.290;2024-01-11T09:08:23;0.50;;;0.50;;
6551;SDS011;3309;48.708;9.290;2024-01-11T09:10:49;0.50;;;0.50;;
6551;SDS011;3309;48.708;9.290;2024-01-11T09:13:15;0.50;;;0.50;;
6551;SDS011;3309;48.708;9.290;2024-01-11T09:15:41;0.50;;;0.50;;
6551;SDS011;3309;48.708;9.290;2024-01-11T09:18:06;0.40;;;0.40;;
6551;SDS011;3309;48.708;9.290;2024-01-11T09:20:32;0.50;;;0.50;;
6551;SDS011;3309;48.708;9.290;2024-01-11T09:22:59;0.50;;;0.50;;
6551;SDS011;3309;48.708;9.290;2024-01-11T09:25:27;0.40;;;0.40;;
6551;SDS011;3309;48.708;9.290;2024-01-11T09:27:53;0.40;;;0.40;;
6551;SDS011;3309;48.708;9.290;2024-01-11T09:30:18;0.43;;;0.43;;
6551;SDS011;3309;48.708;9.290;2024-01-11T09:32:44;0.40;;;0.40;;
6551;SDS011;3309;48.708;9.290;2024-01-11T09:35:09;0.60;;;0.60;;
6551;SDS011;3309;48.708;9.290;2024-01-11T09:37:36;0.40;;;0.40;;
6551;SDS011;3309;48.708;9.290;2024-01-11T09:40:01;0.40;;;0.40;;
6551;SDS011;3309;48.708;9.290;2024-01-11T09:42:28;0.50;;;0.50;;
6551;SDS011;3309;48.708;9.290;2024-01-11T09:44:54;0.40;;;0.40;;
6551;SDS011;3309;48.708;9.290;2024-01-11T09:47:22;0.50;;;0.50;;
6551;SDS011;3309;48.708;9.290;2024-01-11T09:49:50;0.40;;;0.40;;
6551;SDS011;3309;48.708;9.290;2024-01-11T09:52:16;0.43;;;0.43;;
6551;SDS011;3309;48.708;9.290;2024-01-11T09:54:45;0.50;;;0.50;;
6551;SDS011;3309;48.708;9.290;2024-01-11T09:57:10;0.50;;;0.50;;
6551;SDS011;3309;48.708;9.290;2024-01-11T09:59:36;0.50;;;0.50;;
6551;SDS011;3309;48.708;9.290;2024-01-11T10:02:02;0.50;;;0.50;;
6551;SDS011;3309;48.708;9.290;2024-01-11T10:04:28;0.40;;;0.40;;
6551;SDS011;3309;48.708;9.290;2024-01-11T10:06:54;0.40;;;0.40;;
6551;SDS011;3309;48.708;9.290;2024-01-11T10:09:21;0.43;;;0.43;;
6551;SDS011;3309;48.708;9.290;2024-01-11T10:11:47;0.50;;;0.50;;
6551;SDS011;3309;48.708;9.290;2024-01-11T10:14:14;0.60;;;0.60;;
6551;SDS011;3309;48.708;9.290;2024-01-11T10:16:41;0.40;;;0.40;;
6551;SDS011;3309;48.708;9.290;2024-01-11T10:19:08;0.50;;;0.50;;
6551;SDS011;3309;48.708;9.290;2024-01-11T10:21:37;0.50;;;0.50;;
6551;SDS011;3309;48.708;9.290;2024-01-11T10:24:04;0.40;;;0.40;;
6551;SDS011;3309;48.708;9.290;2024-01-11T10:26:30;0.50;;;0.50;;
6551;SDS011;3309;48.708;9.290;2024-01-11T10:28:58;0.40;;;0.40;;
6551;SDS011;3309;48.708;9.290;2024-01-11T10:31:25;0.43;;;0.43;;
6551;SDS011;3309;48.708;9.290;2024-01-11T10:33:53;0.40;;;0.40;;
6551;SDS011;3309;48.708;9.290;2024-01-11T10:36:19;0.50;;;0.50;;
6551;SDS011;3309;48.708;9.290;2024-01-11T10:38:45;0.40;;;0.40;;
6551;SDS011;3309;48.708;9.290;2024-01-11T10:41:13;0.40;;;0.40;;
6551;SDS011;3309;48.708;9.290;2024-01-11T10:43:43;0.50;;;0.50;;
6551;SDS011;3309;48.708;9.290;2024-01-11T10:46:09;0.40;;;0.40;;
6551;SDS011;3309;48.708;9.290;2024-01-11T10:48:38;0.40;;;0.40;;
6551;SDS011;3309;48.708;9.290;2024-01-11T10:51:05;0.40;;;0.40;;
6551;SDS011;3309;48.708;9.290;2024-01-11T10:53:42;0.50;;;0.50;;
6551;SDS011;3309;48.708;9.290;2024-01-11T10:56:12;0.50;;;0.50;;
6551;SDS011;3309;48.708;9.290;2024-01-11T10:58:39;0.60;;;0.60;;
6551;SDS011;3309;48.708;9.290;2024-01-11T11:01:06;0.60;;;0.60;;
6551;SDS011;3309;48.708;9.290;2024-01-11T11:03:33;0.50;;;0.50;;
6551;SDS011;3309;48.708;9.290;2024-01-11T11:06:00;0.50;;;0.50;;
6551;SDS011;3309;48.708;9.290;2024-01-11T11:08:28;0.50;;;0.50;;
6551;SDS011;3309;48.708;9.290;2024-01-11T11:10:55;0.50;;;0.50;;
6551;SDS011;3309;48.708;9.290;2024-01-11T11:13:24;0.43;;;0.43;;
6551;SDS011;3309;48.708;9.290;2024-01-11T11:15:50;0.57;;;0.57;;
6551;SDS011;3309;48.708;9.290;2024-01-11T11:18:17;0.60;;;0.60;;
6551;SDS011;3309;48.708;9.290;2024-01-11T11:20:43;0.40;;;0.40;;
6551;SDS011;3309;48.708;9.290;2024-01-11T11:23:10;0.40;;;0.40;;
6551;SDS011;3309;48.708;9.290;2024-01-11T11:25:41;0.50;;;0.50;;
6551;SDS011;3309;48.708;9.290;2024-01-11T11:28:07;0.50;;;0.50;;
6551;SDS011;3309;48.708;9.290;2024-01-11T11:30:33;0.50;;;0.50;;
6551;SDS011;3309;48.708;9.290;2024-01-11T11:33:17;0.40;;;0.40;;
6551;SDS011;3309;48.708;9.290;2024-01-11T11:36:06;0.40;;;0.40;;
6551;SDS011;3309;48.708;9.290;2024-01-11T11:38:37;0.50;;;0.50;;
6551;SDS011;3309;48.708;9.290;2024-01-11T11:41:04;0.60;;;0.60;;
6551;SDS011;3309;48.708;9.290;2024-01-11T11:43:29;0.53;;;0.53;;
6551;SDS011;3309;48.708;9.290;2024-01-11T11:45:56;0.40;;;0.40;;
6551;SDS011;3309;48.708;9.290;2024-01-11T11:51:14;0.40;;;0.40;;
6551;SDS011;3309;48.708;9.290;2024-01-11T11:53:43;0.60;;;0.60;;
6551;SDS011;3309;48.708;9.290;2024-01-11T11:56:10;0.67;;;0.67;;
6551;SDS011;3309;48.708;9.290;2024-01-11T11:58:37;0.67;;;0.67;;
6551;SDS011;3309;48.708;9.290;2024-01-11T12:01:04;0.60;;;0.60;;
6551;SDS011;3309;48.708;9.290;2024-01-11T12:03:36;0.70;;;0.70;;
6551;SDS011;3309;48.708;9.290;2024-01-11T12:06:03;0.80;;;0.80;;
6551;SDS011;3309;48.708;9.290;2024-01-11T12:08:30;0.77;;;0.77;;
6551;SDS011;3309;48.708;9.290;2024-01-11T12:10:56;0.80;;;0.80;;
6551;SDS011;3309;48.708;9.290;2024-01-11T12:13:22;0.70;;;0.70;;
6551;SDS011;3309;48.708;9.290;2024-01-11T12:15:48;0.70;;;0.70;;
6551;SDS011;3309;48.708;9.290;2024-01-11T12:18:14;0.80;;;0.80;;
6551;SDS011;3309;48.708;9.290;2024-01-11T12:20:39;0.80;;;0.80;;
6551;SDS011;3309;48.708;9.290;2024-01-11T12:23:05;0.60;;;0.60;;
6551;SDS011;3309;48.708;9.290;2024-01-11T12:25:31;0.70;;;0.70;;
6551;SDS011;3309;48.708;9.290;2024-01-11T12:27:57;0.80;;;0.80;;
6551;SDS011;3309;48.708;9.290;2024-01-11T12:30:23;0.63;;;0.63;;
6551;SDS011;3309;48.708;9.290;2024-01-11T12:32:50;0.83;;;0.83;;
6551;SDS011;3309;48.708;9.290;2024-01-11T12:35:16;0.70;;;0.70;;
6551;SDS011;3309;48.708;9.290;2024-01-11T12:38:04;0.80;;;0.80;;
6551;SDS011;3309;48.708;9.290;2024-01-11T12:40:36;0.67;;;0.67;;
6551;SDS011;3309;48.708;9.290;2024-01-11T12:43:02;0.80;;;0.80;;
6551;SDS011;3309;48.708;9.290;2024-01-11T12:45:29;0.73;;;0.73;;
6551;SDS011;3309;48.708;9.290;2024-01-11T12:47:57;0.70;;;0.70;;
6551;SDS011;3309;48.708;9.290;2024-01-11T12:50:27;0.60;;;0.60;;
6551;SDS011;3309;48.708;9.290;2024-01-11T12:53:13;0.70;;;0.70;;
6551;SDS011;3309;48.708;9.290;2024-01-11T12:55:45;0.70;;;0.70;;
6551;SDS011;3309;48.708;9.290;2024-01-11T12:58:18;0.50;;;0.50;;
6551;SDS011;3309;48.708;9.290;2024-01-11T13:00:46;0.60;;;0.60;;
6551;SDS011;3309;48.708;9.290;2024-01-11T13:03:14;0.60;;;0.60;;
6551;SDS011;3309;48.708;9.290;2024-01-11T13:05:40;0.70;;;0.70;;
6551;SDS011;3309;48.708;9.290;2024-01-11T13:08:08;0.53;;;0.53;;
6551;SDS011;3309;48.708;9.290;2024-01-11T13:10:34;0.50;;;0.50;;
6551;SDS011;3309;48.708;9.290;2024-01-11T13:13:01;0.50;;;0.50;;
6551;SDS011;3309;48.708;9.290;2024-01-11T13:15:28;0.50;;;0.50;;
6551;SDS011;3309;48.708;9.290;2024-01-11T13:18:01;0.40;;;0.40;;
6551;SDS011;3309;48.708;9.290;2024-01-11T13:20:27;0.50;;;0.50;;
6551;SDS011;3309;48.708;9.290;2024-01-11T13:23:14;0.40;;;0.40;;
6551;SDS011;3309;48.708;9.290;2024-01-11T13:25:45;0.50;;;0.50;;
6551;SDS011;3309;48.708;9.290;2024-01-11T13:28:12;0.57;;;0.57;;
6551;SDS011;3309;48.708;9.290;2024-01-11T13:30:38;0.60;;;0.60;;
6551;SDS011;3309;48.708;9.290;2024-01-11T13:33:05;0.60;;;0.60;;
6551;SDS011;3309;48.708;9.290;2024-01-11T13:35:34;0.40;;;0.40;;
6551;SDS011;3309;48.708;9.290;2024-01-11T13:38:00;0.60;;;0.60;;
6551;SDS011;3309;48.708;9.290;2024-01-11T13:40:26;0.50;;;0.50;;
6551;SDS011;3309;48.708;9.290;2024-01-11T13:42:54;0.70;;;0.70;;
6551;SDS011;3309;48.708;9.290;2024-01-11T13:45:23;0.53;;;0.53;;
6551;SDS011;3309;48.708;9.290;2024-01-11T13:47:52;0.60;;;0.60;;
6551;SDS011;3309;48.708;9.290;2024-01-11T13:50:22;0.70;;;0.70;;
6551;SDS011;3309;48.708;9.290;2024-01-11T13:52:51;0.60;;;0.60;;
6551;SDS011;3309;48.708;9.290;2024-01-11T13:55:17;0.70;;;0.70;;
6551;SDS011;3309;48.708;9.290;2024-01-11T13:57:44;0.77;;;0.77;;
6551;SDS011;3309;48.708;9.290;2024-01-11T14:00:10;0.60;;;0.60;;
6551;SDS011;3309;48.708;9.290;2024-01-11T14:02:39;0.60;;;0.60;;
6551;SDS011;3309;48.708;9.290;2024-01-11T14:05:08;0.70;;;0.70;;
6551;SDS011;3309;48.708;9.290;2024-01-11T14:07:38;0.60;;;0.60;;
6551;SDS011;3309;48.708;9.290;2024-01-11T14:10:06;0.70;;;0.70;;
6551;SDS011;3309;48.708;9.290;2024-01-11T14:12:33;0.80;;;0.80;;
6551;SDS011;3309;48.708;9.290;2024-01-11T14:14:59;0.70;;;0.70;;
6551;SDS011;3309;48.708;9.290;2024-01-11T14:17:26;0.80;;;0.80;;
6551;SDS011;3309;48.708;9.290;2024-01-11T14:19:51;0.70;;;0.70;;
6551;SDS011;3309;48.708;9.290;2024-01-11T14:22:17;0.70;;;0.70;;
6551;SDS011;3309;48.708;9.290;2024-01-11T14:24:43;0.70;;;0.70;;
6551;SDS011;3309;48.708;9.290;2024-01-11T14:27:08;0.60;;;0.60;;
6551;SDS011;3309;48.708;9.290;2024-01-11T14:29:34;0.80;;;0.80;;
6551;SDS011;3309;48.708;9.290;2024-01-11T14:32:00;0.70;;;0.70;;
6551;SDS011;3309;48.708;9.290;2024-01-11T14:34:25;0.77;;;0.77;;
6551;SDS011;3309;48.708;9.290;2024-01-11T14:36:51;0.70;;;0.70;;
6551;SDS011;3309;48.708;9.290;2024-01-11T14:39:17;0.70;;;0.70;;
6551;SDS011;3309;48.708;9.290;2024-01-11T14:41:42;0.80;;;0.80;;
6551;SDS011;3309;48.708;9.290;2024-01-11T14:44:08;0.80;;;0.80;;
6551;SDS011;3309;48.708;9.290;2024-01-11T14:46:35;0.80;;;0.80;;
6551;SDS011;3309;48.708;9.290;2024-01-11T14:49:01;0.70;;;0.70;;
6551;SDS011;3309;48.708;9.290;2024-01-11T14:51:27;0.90;;;0.90;;
6551;SDS011;3309;48.708;9.290;2024-01-11T14:53:56;1.00;;;1.00;;
6551;SDS011;3309;48.708;9.290;2024-01-11T14:56:21;0.87;;;0.87;;
6551;SDS011;3309;48.708;9.290;2024-01-11T14:58:47;0.80;;;0.80;;
6551;SDS011;3309;48.708;9.290;2024-01-11T15:01:13;0.90;;;0.90;;
6551;SDS011;3309;48.708;9.290;2024-01-11T15:03:39;0.90;;;0.90;;
6551;SDS011;3309;48.708;9.290;2024-01-11T15:06:04;0.80;;;0.80;;
6551;SDS011;3309;48.708;9.290;2024-01-11T15:08:30;0.83;;;0.83;;
6551;SDS011;3309;48.708;9.290;2024-01-11T15:10:56;0.90;;;0.90;;
6551;SDS011;3309;48.708;9.290;2024-01-11T15:13:21;1.00;;;1.00;;
6551;SDS011;3309;48.708;9.290;2024-01-11T15:15:47;0.80;;;0.80;;